sensor_id;sensor_type;location;lat;lon;timestamp;temperature;humidity
5631;DHT22;2837;50.990;7.124;2023-04-03T05:02:16;5.70;99.90
5631;DHT22;2837;50.990;7.124;2023-04-03T05:04:42;5.70;99.90
5631;DHT22;2837;50.990;7.124;2023-04-03T05:07:08;5.60;99.90
5631;DHT22;2837;50.990;7.124;2023-04-03T05:09:33;5.70;99.90
5631;DHT22;2837;50.990;7.124;2023-04-03T05:11:59;5.80;99.90
5631;DHT22;2837;50.990;7.124;2023-04-03T05:14:25;5.90;99.90
5631;DHT22;2837;50.990;7.124;2023-04-03T05:16:50;5.70;99.90
5631;DHT22;2837;50.990;7.124;2023-04-03T05:19:19;5.70;99.90
5631;DHT22;2837;50.990;7.124;2023-04-03T05:21:45;5.60;99.90
5631;DHT22;2837;50.990;7.124;2023-04-03T05:24:10;5.70;99.90
5631;DHT22;2837;50.990;7.124;2023-04-03T05:26:36;5.70;99.90
5631;DHT22;2837;50.990;7.124;2023-04-03T05:29:02;6.00;99.90
5631;DHT22;2837;50.990;7.124;2023-04-03T05:31:27;5.70;99.90
5631;DHT22;2837;50.990;7.124;2023-04-03T05:33:55;5.70;99.90
5631;DHT22;2837;50.990;7.124;2023-04-03T05:36:20;5.70;99.90
5631;DHT22;2837;50.990;7.124;2023-04-03T05:38:46;5.70;99.90
5631;DHT22;2837;50.990;7.124;2023-04-03T05:41:12;5.70;99.90
5631;DHT22;2837;50.990;7.124;2023-04-03T05:43:38;5.70;99.90
5631;DHT22;2837;50.990;7.124;2023-04-03T05:46:08;5.70;99.90
5631;DHT22;2837;50.990;7.124;2023-04-03T05:48:35;5.60;99.90
5631;DHT22;2837;50.990;7.124;2023-04-03T05:51:00;5.60;99.90
5631;DHT22;2837;50.990;7.124;2023-04-03T05:53:28;5.60;99.90
5631;DHT22;2837;50.990;7.124;2023-04-03T05:55:54;5.60;99.90
5631;DHT22;2837;50.990;7.124;2023-04-03T05:58:20;5.70;99.90
5631;DHT22;2837;50.990;7.124;2023-04-03T06:00:45;5.60;99.90
5631;DHT22;2837;50.990;7.124;2023-04-03T06:03:11;5.60;99.90
5631;DHT22;2837;50.990;7.124;2023-04-03T06:05:36;5.50;99.90
5631;DHT22;2837;50.990;7.124;2023-04-03T06:08:02;5.20;99.90
5631;DHT22;2837;50.990;7.124;2023-04-03T06:10:28;5.60;99.90
5631;DHT22;2837;50.990;7.124;2023-04-03T06:12:54;5.60;99.90
5631;DHT22;2837;50.990;7.124;2023-04-03T06:15:19;5.70;99.90
5631;DHT22;2837;50.990;7.124;2023-04-03T06:17:45;5.70;99.90
5631;DHT22;2837;50.990;7.124;2023-04-03T06:20:12;5.60;99.90
5631;DHT22;2837;50.990;7.124;2023-04-03T06:22:38;5.70;99.90
5631;DHT22;2837;50.990;7.124;2023-04-03T06:25:05;5.70;99.90
5631;DHT22;2837;50.990;7.124;2023-04-03T06:27:31;5.70;99.90
5631;DHT22;2837;50.990;7.124;2023-04-03T06:29:57;5.80;99.90
5631;DHT22;2837;50.990;7.124;2023-04-03T06:32:22;5.80;99.90
5631;DHT22;2837;50.990;7.124;2023-04-03T06:34:48;5.80;99.90
5631;DHT22;2837;50.990;7.124;2023-04-03T06:37:19;5.80;99.90
5631;DHT22;2837;50.990;7.124;2023-04-03T06:39:46;5.70;99.90
5631;DHT22;2837;50.990;7.124;2023-04-03T06:42:11;5.80;99.90
5631;DHT22;2837;50.990;7.124;2023-04-03T06:44:37;5.80;99.90
5631;DHT22;2837;50.990;7.124;2023-04-03T06:47:03;5.80;99.90
5631;DHT22;2837;50.990;7.124;2023-04-03T06:49:29;5.80;99.90
5631;DHT22;2837;50.990;7.124;2023-04-03T06:51:54;5.90;99.90
5631;DHT22;2837;50.990;7.124;2023-04-03T06:54:21;5.90;99.90
5631;DHT22;2837;50.990;7.124;2023-04-03T06:56:47;5.90;99.90
5631;DHT22;2837;50.990;7.124;2023-04-03T06:59:13;5.90;99.90
5631;DHT22;2837;50.990;7.124;2023-04-03T07:01:41;6.00;99.90
5631;DHT22;2837;50.990;7.124;2023-04-03T07:04:07;6.10;99.90
5631;DHT22;2837;50.990;7.124;2023-04-03T07:06:33;6.10;99.90
5631;DHT22;2837;50.990;7.124;2023-04-03T07:09:00;6.10;99.90
5631;DHT22;2837;50.990;7.124;2023-04-03T07:11:26;6.10;99.90
5631;DHT22;2837;50.990;7.124;2023-04-03T07:13:52;6.20;99.90
5631;DHT22;2837;50.990;7.124;2023-04-03T07:16:18;6.10;99.90
5631;DHT22;2837;50.990;7.124;2023-04-03T07:18:44;6.10;99.90
5631;DHT22;2837;50.990;7.124;2023-04-03T07:21:10;6.20;99.90
5631;DHT22;2837;50.990;7.124;2023-04-03T07:23:35;6.20;99.90
5631;DHT22;2837;50.990;7.124;2023-04-03T07:26:01;6.20;99.90
5631;DHT22;2837;50.990;7.124;2023-04-03T07:28:27;6.20;99.90
5631;DHT22;2837;50.990;7.124;2023-04-03T07:31:02;6.30;99.90
5631;DHT22;2837;50.990;7.124;2023-04-03T07:33:29;6.20;99.90
5631;DHT22;2837;50.990;7.124;2023-04-03T07:35:55;6.30;99.90
5631;DHT22;2837;50.990;7.124;2023-04-03T07:38:20;6.30;99.90
5631;DHT22;2837;50.990;7.124;2023-04-03T07:40:50;6.40;99.90
5631;DHT22;2837;50.990;7.124;2023-04-03T07:43:18;6.40;99.90
5631;DHT22;2837;50.990;7.124;2023-04-03T07:45:45;6.40;99.90
5631;DHT22;2837;50.990;7.124;2023-04-03T07:48:13;6.50;99.90
5631;DHT22;2837;50.990;7.124;2023-04-03T07:50:41;6.50;99.90
5631;DHT22;2837;50.990;7.124;2023-04-03T07:53:07;6.50;99.90
5631;DHT22;2837;50.990;7.124;2023-04-03T07:55:33;6.50;99.90
5631;DHT22;2837;50.990;7.124;2023-04-03T07:57:59;6.50;99.90
5631;DHT22;2837;50.990;7.124;2023-04-03T08:00:25;6.60;99.90
5631;DHT22;2837;50.990;7.124;2023-04-03T08:02:50;6.50;99.90
5631;DHT22;2837;50.990;7.124;2023-04-03T08:05:20;6.60;99.90
5631;DHT22;2837;50.990;7.124;2023-04-03T08:07:47;6.60;99.90
5631;DHT22;2837;50.990;7.124;2023-04-03T08:10:12;6.60;99.90
5631;DHT22;2837;50.990;7.124;2023-04-03T08:12:38;6.60;99.90
5631;DHT22;2837;50.990;7.124;2023-04-03T08:15:04;6.70;99.90
5631;DHT22;2837;50.990;7.124;2023-04-03T08:17:30;6.70;99.90
5631;DHT22;2837;50.990;7.124;2023-04-03T08:19:56;6.70;99.90
5631;DHT22;2837;50.990;7.124;2023-04-03T08:22:21;6.70;99.90
5631;DHT22;2837;50.990;7.124;2023-04-03T08:24:47;6.70;99.90
5631;DHT22;2837;50.990;7.124;2023-04-03T08:27:12;6.80;99.90
5631;DHT22;2837;50.990;7.124;2023-04-03T08:29:38;6.80;99.90
5631;DHT22;2837;50.990;7.124;2023-04-03T08:32:05;7.00;88.30
5631;DHT22;2837;50.990;7.124;2023-04-03T08:34:30;6.90;78.80
5631;DHT22;2837;50.990;7.124;2023-04-03T08:37:00;6.90;77.10
5631;DHT22;2837;50.990;7.124;2023-04-03T08:39:26;6.90;74.40
5631;DHT22;2837;50.990;7.124;2023-04-03T08:41:52;6.90;73.20
5631;DHT22;2837;50.990;7.124;2023-04-03T08:45:09;7.00;71.00
5631;DHT22;2837;50.990;7.124;2023-04-03T08:47:24;7.00;71.70
5631;DHT22;2837;50.990;7.124;2023-04-03T08:50:03;7.10;73.80
5631;DHT22;2837;50.990;7.124;2023-04-03T08:52:48;7.10;70.10
5631;DHT22;2837;50.990;7.124;2023-04-03T08:57:53;7.10;65.90
5631;DHT22;2837;50.990;7.124;2023-04-03T09:00:25;7.20;68.10
5631;DHT22;2837;50.990;7.124;2023-04-03T09:02:56;7.20;65.40
5631;DHT22;2837;50.990;7.124;2023-04-03T09:08:32;7.30;65.90
5631;DHT22;2837;50.990;7.124;2023-04-03T09:11:24;7.30;65.30
5631;DHT22;2837;50.990;7.124;2023-04-03T09:16:49;7.30;67.30
5631;DHT22;2837;50.990;7.124;2023-04-03T09:19:37;7.30;70.40
5631;DHT22;2837;50.990;7.124;2023-04-03T09:22:28;7.40;70.50
5631;DHT22;2837;50.990;7.124;2023-04-03T09:25:05;7.50;70.90
5631;DHT22;2837;50.990;7.124;2023-04-03T09:27:33;7.60;67.10
5631;DHT22;2837;50.990;7.124;2023-04-03T09:29:58;7.60;66.20
5631;DHT22;2837;50.990;7.124;2023-04-03T09:32:32;7.60;65.30
5631;DHT22;2837;50.990;7.124;2023-04-03T09:35:20;7.60;64.80
5631;DHT22;2837;50.990;7.124;2023-04-03T09:37:49;7.60;67.20
5631;DHT22;2837;50.990;7.124;2023-04-03T09:42:52;7.80;67.40
5631;DHT22;2837;50.990;7.124;2023-04-03T09:45:44;7.80;68.10
5631;DHT22;2837;50.990;7.124;2023-04-03T09:50:57;7.80;64.50
5631;DHT22;2837;50.990;7.124;2023-04-03T09:53:38;7.80;61.50
5631;DHT22;2837;50.990;7.124;2023-04-03T09:56:25;7.90;61.50
5631;DHT22;2837;50.990;7.124;2023-04-03T09:59:12;7.90;64.80
5631;DHT22;2837;50.990;7.124;2023-04-03T10:01:43;7.90;64.80
5631;DHT22;2837;50.990;7.124;2023-04-03T10:04:20;8.00;65.60
5631;DHT22;2837;50.990;7.124;2023-04-03T10:06:52;8.10;67.30
5631;DHT22;2837;50.990;7.124;2023-04-03T10:09:30;8.20;66.40
5631;DHT22;2837;50.990;7.124;2023-04-03T10:12:08;8.10;65.10
5631;DHT22;2837;50.990;7.124;2023-04-03T10:14:39;8.20;63.20
5631;DHT22;2837;50.990;7.124;2023-04-03T10:19:45;8.20;60.10
5631;DHT22;2837;50.990;7.124;2023-04-03T10:22:15;8.10;59.10
5631;DHT22;2837;50.990;7.124;2023-04-03T10:30:47;8.30;58.30
5631;DHT22;2837;50.990;7.124;2023-04-03T10:33:27;8.40;55.70
5631;DHT22;2837;50.990;7.124;2023-04-03T10:36:37;8.40;56.90
5631;DHT22;2837;50.990;7.124;2023-04-03T10:52:26;8.60;53.30
5631;DHT22;2837;50.990;7.124;2023-04-03T10:55:27;8.60;52.10
5631;DHT22;2837;50.990;7.124;2023-04-03T10:57:56;8.60;50.50
5631;DHT22;2837;50.990;7.124;2023-04-03T11:00:46;8.60;49.70
5631;DHT22;2837;50.990;7.124;2023-04-03T11:03:30;8.60;51.50
5631;DHT22;2837;50.990;7.124;2023-04-03T11:06:00;8.70;53.50
5631;DHT22;2837;50.990;7.124;2023-04-03T11:08:38;8.70;53.10
5631;DHT22;2837;50.990;7.124;2023-04-03T11:11:17;8.70;53.30
5631;DHT22;2837;50.990;7.124;2023-04-03T11:13:53;8.80;53.70
5631;DHT22;2837;50.990;7.124;2023-04-03T11:16:33;8.70;52.00
5631;DHT22;2837;50.990;7.124;2023-04-03T11:19:20;8.80;52.50
5631;DHT22;2837;50.990;7.124;2023-04-03T11:21:58;8.70;51.80
5631;DHT22;2837;50.990;7.124;2023-04-03T11:24:29;8.80;50.00
5631;DHT22;2837;50.990;7.124;2023-04-03T11:26:57;8.90;50.20
5631;DHT22;2837;50.990;7.124;2023-04-03T11:29:32;8.80;51.20
5631;DHT22;2837;50.990;7.124;2023-04-03T11:34:45;8.80;48.70
5631;DHT22;2837;50.990;7.124;2023-04-03T11:37:24;8.80;49.80
5631;DHT22;2837;50.990;7.124;2023-04-03T11:39:56;8.90;49.70
5631;DHT22;2837;50.990;7.124;2023-04-03T11:42:40;8.90;47.90
5631;DHT22;2837;50.990;7.124;2023-04-03T11:47:58;9.00;48.40
5631;DHT22;2837;50.990;7.124;2023-04-03T11:50:44;9.00;48.40
5631;DHT22;2837;50.990;7.124;2023-04-03T12:16:58;9.10;47.80
5631;DHT22;2837;50.990;7.124;2023-04-03T12:29:55;9.10;44.10
5631;DHT22;2837;50.990;7.124;2023-04-03T12:38:29;9.20;45.00
5631;DHT22;2837;50.990;7.124;2023-04-03T12:46:38;9.30;45.00
5631;DHT22;2837;50.990;7.124;2023-04-03T12:49:37;9.30;45.10
5631;DHT22;2837;50.990;7.124;2023-04-03T12:52:04;9.30;44.20
5631;DHT22;2837;50.990;7.124;2023-04-03T12:54:38;9.30;44.10
5631;DHT22;2837;50.990;7.124;2023-04-03T12:57:24;9.30;43.70
5631;DHT22;2837;50.990;7.124;2023-04-03T12:59:50;9.30;46.00
5631;DHT22;2837;50.990;7.124;2023-04-03T13:02:28;9.30;48.90
5631;DHT22;2837;50.990;7.124;2023-04-03T13:05:09;9.40;45.80
5631;DHT22;2837;50.990;7.124;2023-04-03T13:07:39;9.40;44.90
5631;DHT22;2837;50.990;7.124;2023-04-03T13:12:34;9.40;44.20
5631;DHT22;2837;50.990;7.124;2023-04-03T13:15:11;9.40;44.30
5631;DHT22;2837;50.990;7.124;2023-04-03T13:17:39;9.40;44.40
5631;DHT22;2837;50.990;7.124;2023-04-03T13:25:21;9.40;45.10
5631;DHT22;2837;50.990;7.124;2023-04-03T13:27:47;9.40;45.50
5631;DHT22;2837;50.990;7.124;2023-04-03T13:30:20;9.40;45.20
5631;DHT22;2837;50.990;7.124;2023-04-03T13:32:46;9.50;46.60
5631;DHT22;2837;50.990;7.124;2023-04-03T13:35:34;9.50;45.70
5631;DHT22;2837;50.990;7.124;2023-04-03T13:38:04;9.70;48.60
5631;DHT22;2837;50.990;7.124;2023-04-03T13:40:30;9.70;48.10
5631;DHT22;2837;50.990;7.124;2023-04-03T13:43:16;9.90;48.70
5631;DHT22;2837;50.990;7.124;2023-04-03T13:45:56;9.80;48.50
5631;DHT22;2837;50.990;7.124;2023-04-03T13:48:22;9.80;49.20
5631;DHT22;2837;50.990;7.124;2023-04-03T13:51:01;9.80;48.50
5631;DHT22;2837;50.990;7.124;2023-04-03T13:53:30;9.80;47.40
5631;DHT22;2837;50.990;7.124;2023-04-03T13:56:04;10.00;49.20
5631;DHT22;2837;50.990;7.124;2023-04-03T13:58:31;9.90;48.90
5631;DHT22;2837;50.990;7.124;2023-04-03T14:01:17;9.90;47.60
5631;DHT22;2837;50.990;7.124;2023-04-03T14:03:51;9.80;47.80
5631;DHT22;2837;50.990;7.124;2023-04-03T14:06:17;9.90;48.70
5631;DHT22;2837;50.990;7.124;2023-04-03T14:08:44;9.90;47.20
5631;DHT22;2837;50.990;7.124;2023-04-03T14:11:26;9.90;48.40
5631;DHT22;2837;50.990;7.124;2023-04-03T14:13:53;9.90;50.20
5631;DHT22;2837;50.990;7.124;2023-04-03T14:16:22;10.10;50.10
5631;DHT22;2837;50.990;7.124;2023-04-03T14:18:49;10.00;49.70
5631;DHT22;2837;50.990;7.124;2023-04-03T14:21:17;10.00;48.20
5631;DHT22;2837;50.990;7.124;2023-04-03T14:23:43;10.10;45.30
5631;DHT22;2837;50.990;7.124;2023-04-03T14:26:18;10.00;44.90
5631;DHT22;2837;50.990;7.124;2023-04-03T14:28:46;9.90;45.80
5631;DHT22;2837;50.990;7.124;2023-04-03T14:31:13;10.00;45.00
5631;DHT22;2837;50.990;7.124;2023-04-03T14:33:39;10.00;44.50
5631;DHT22;2837;50.990;7.124;2023-04-03T14:36:13;10.00;45.30
5631;DHT22;2837;50.990;7.124;2023-04-03T14:38:40;10.10;44.20
5631;DHT22;2837;50.990;7.124;2023-04-03T14:41:06;10.00;44.60
5631;DHT22;2837;50.990;7.124;2023-04-03T14:43:32;10.00;44.40
5631;DHT22;2837;50.990;7.124;2023-04-03T14:45:58;10.00;46.40
5631;DHT22;2837;50.990;7.124;2023-04-03T14:48:26;10.00;46.80
5631;DHT22;2837;50.990;7.124;2023-04-03T14:50:53;10.10;44.90
5631;DHT22;2837;50.990;7.124;2023-04-03T14:53:19;10.10;45.80
5631;DHT22;2837;50.990;7.124;2023-04-03T14:55:48;10.10;45.00
5631;DHT22;2837;50.990;7.124;2023-04-03T14:58:16;10.10;45.10
5631;DHT22;2837;50.990;7.124;2023-04-03T15:00:44;10.10;45.00
5631;DHT22;2837;50.990;7.124;2023-04-03T15:03:17;10.00;45.50
5631;DHT22;2837;50.990;7.124;2023-04-03T15:05:44;10.00;46.40
5631;DHT22;2837;50.990;7.124;2023-04-03T15:08:26;10.10;47.40
5631;DHT22;2837;50.990;7.124;2023-04-03T15:10:55;10.10;46.10
5631;DHT22;2837;50.990;7.124;2023-04-03T15:13:24;10.10;44.60
5631;DHT22;2837;50.990;7.124;2023-04-03T15:15:51;10.10;44.90
5631;DHT22;2837;50.990;7.124;2023-04-03T15:18:20;10.10;44.40
5631;DHT22;2837;50.990;7.124;2023-04-03T15:20:46;10.10;46.40
5631;DHT22;2837;50.990;7.124;2023-04-03T15:23:16;9.80;45.80
5631;DHT22;2837;50.990;7.124;2023-04-03T15:25:43;10.10;45.20
5631;DHT22;2837;50.990;7.124;2023-04-03T15:28:43;10.20;47.90
5631;DHT22;2837;50.990;7.124;2023-04-03T15:31:08;10.20;46.30
5631;DHT22;2837;50.990;7.124;2023-04-03T15:33:35;10.20;47.20
5631;DHT22;2837;50.990;7.124;2023-04-03T15:36:01;10.40;46.40
5631;DHT22;2837;50.990;7.124;2023-04-03T15:38:26;10.20;46.00
5631;DHT22;2837;50.990;7.124;2023-04-03T15:40:53;10.20;46.80
5631;DHT22;2837;50.990;7.124;2023-04-03T15:43:19;10.20;46.70
5631;DHT22;2837;50.990;7.124;2023-04-03T15:45:45;10.30;46.30
5631;DHT22;2837;50.990;7.124;2023-04-03T15:48:11;10.30;46.10
5631;DHT22;2837;50.990;7.124;2023-04-03T15:50:38;10.30;46.30
5631;DHT22;2837;50.990;7.124;2023-04-03T15:53:04;10.30;44.90
5631;DHT22;2837;50.990;7.124;2023-04-03T15:55:31;10.20;46.10
5631;DHT22;2837;50.990;7.124;2023-04-03T15:57:58;10.20;46.50
5631;DHT22;2837;50.990;7.124;2023-04-03T16:00:25;10.30;45.40
5631;DHT22;2837;50.990;7.124;2023-04-03T16:02:53;10.20;45.20
5631;DHT22;2837;50.990;7.124;2023-04-03T16:05:20;10.10;46.50
5631;DHT22;2837;50.990;7.124;2023-04-03T16:07:47;10.20;45.70
5631;DHT22;2837;50.990;7.124;2023-04-03T16:10:14;10.10;46.60
5631;DHT22;2837;50.990;7.124;2023-04-03T16:12:40;10.30;46.90
5631;DHT22;2837;50.990;7.124;2023-04-03T16:15:07;10.10;47.70
5631;DHT22;2837;50.990;7.124;2023-04-03T16:17:33;10.10;46.60
5631;DHT22;2837;50.990;7.124;2023-04-03T16:20:00;10.20;46.40
5631;DHT22;2837;50.990;7.124;2023-04-03T16:22:27;10.10;47.00
5631;DHT22;2837;50.990;7.124;2023-04-03T16:24:54;10.10;46.80
5631;DHT22;2837;50.990;7.124;2023-04-03T16:27:20;10.30;46.30
5631;DHT22;2837;50.990;7.124;2023-04-03T16:29:45;10.00;45.70
5631;DHT22;2837;50.990;7.124;2023-04-03T16:32:12;10.10;46.00
5631;DHT22;2837;50.990;7.124;2023-04-03T16:34:38;10.10;46.00
5631;DHT22;2837;50.990;7.124;2023-04-03T16:37:05;10.10;45.80
5631;DHT22;2837;50.990;7.124;2023-04-03T16:39:31;10.00;46.10
5631;DHT22;2837;50.990;7.124;2023-04-03T16:41:57;10.10;46.80
5631;DHT22;2837;50.990;7.124;2023-04-03T16:44:22;10.10;48.00
5631;DHT22;2837;50.990;7.124;2023-04-03T16:46:48;10.10;47.50
5631;DHT22;2837;50.990;7.124;2023-04-03T16:49:13;10.20;47.00
5631;DHT22;2837;50.990;7.124;2023-04-03T16:51:39;10.00;47.00
5631;DHT22;2837;50.990;7.124;2023-04-03T16:54:05;10.00;48.00
5631;DHT22;2837;50.990;7.124;2023-04-03T16:56:31;10.00;48.50
5631;DHT22;2837;50.990;7.124;2023-04-03T16:58:57;9.90;48.50
5631;DHT22;2837;50.990;7.124;2023-04-03T17:01:23;9.90;48.50
5631;DHT22;2837;50.990;7.124;2023-04-03T17:03:49;9.90;47.40
5631;DHT22;2837;50.990;7.124;2023-04-03T17:06:19;9.90;48.70
5631;DHT22;2837;50.990;7.124;2023-04-03T17:08:47;9.90;47.20
5631;DHT22;2837;50.990;7.124;2023-04-03T17:11:14;9.90;48.30
5631;DHT22;2837;50.990;7.124;2023-04-03T17:13:40;9.80;47.70
5631;DHT22;2837;50.990;7.124;2023-04-03T17:16:08;9.80;47.50
5631;DHT22;2837;50.990;7.124;2023-04-03T17:18:34;9.80;48.50
5631;DHT22;2837;50.990;7.124;2023-04-03T17:21:01;9.80;48.10
5631;DHT22;2837;50.990;7.124;2023-04-03T17:23:28;9.80;48.10
5631;DHT22;2837;50.990;7.124;2023-04-03T17:25:54;9.80;48.10
5631;DHT22;2837;50.990;7.124;2023-04-03T17:28:21;9.70;48.70
5631;DHT22;2837;50.990;7.124;2023-04-03T17:30:50;9.80;48.10
5631;DHT22;2837;50.990;7.124;2023-04-03T17:33:15;9.70;47.80
5631;DHT22;2837;50.990;7.124;2023-04-03T17:35:41;9.70;47.40
5631;DHT22;2837;50.990;7.124;2023-04-03T17:38:06;9.60;47.90
5631;DHT22;2837;50.990;7.124;2023-04-03T17:40:32;9.50;48.40
5631;DHT22;2837;50.990;7.124;2023-04-03T17:42:58;9.50;48.80
5631;DHT22;2837;50.990;7.124;2023-04-03T17:45:23;9.40;49.50
5631;DHT22;2837;50.990;7.124;2023-04-03T17:47:51;9.40;48.90
5631;DHT22;2837;50.990;7.124;2023-04-03T17:50:17;9.40;49.00
5631;DHT22;2837;50.990;7.124;2023-04-03T17:52:43;9.40;49.00
5631;DHT22;2837;50.990;7.124;2023-04-03T17:55:09;9.30;49.30
5631;DHT22;2837;50.990;7.124;2023-04-03T17:57:34;9.30;49.60
5631;DHT22;2837;50.990;7.124;2023-04-03T18:00:00;9.20;49.10
5631;DHT22;2837;50.990;7.124;2023-04-03T18:02:25;9.20;49.30
5631;DHT22;2837;50.990;7.124;2023-04-03T18:04:52;9.10;49.00
5631;DHT22;2837;50.990;7.124;2023-04-03T18:07:18;9.00;49.90
5631;DHT22;2837;50.990;7.124;2023-04-03T18:09:45;9.00;49.30
5631;DHT22;2837;50.990;7.124;2023-04-03T18:12:11;9.00;49.60
5631;DHT22;2837;50.990;7.124;2023-04-03T18:14:38;8.90;49.70
5631;DHT22;2837;50.990;7.124;2023-04-03T18:17:04;8.90;49.40
5631;DHT22;2837;50.990;7.124;2023-04-03T18:19:30;8.90;49.90
5631;DHT22;2837;50.990;7.124;2023-04-03T18:21:59;9.00;49.80
5631;DHT22;2837;50.990;7.124;2023-04-03T18:24:26;8.80;49.80
5631;DHT22;2837;50.990;7.124;2023-04-03T18:26:58;8.70;50.20
5631;DHT22;2837;50.990;7.124;2023-04-03T18:29:25;8.80;51.00
5631;DHT22;2837;50.990;7.124;2023-04-03T18:31:53;8.60;50.90
5631;DHT22;2837;50.990;7.124;2023-04-03T18:34:19;8.60;50.80
5631;DHT22;2837;50.990;7.124;2023-04-03T18:36:45;8.60;50.60
5631;DHT22;2837;50.990;7.124;2023-04-03T18:39:11;8.60;51.00
5631;DHT22;2837;50.990;7.124;2023-04-03T18:41:37;8.50;51.80
5631;DHT22;2837;50.990;7.124;2023-04-03T18:44:06;8.50;51.30
5631;DHT22;2837;50.990;7.124;2023-04-03T18:46:33;8.50;51.00
5631;DHT22;2837;50.990;7.124;2023-04-03T18:48:58;8.40;51.80
5631;DHT22;2837;50.990;7.124;2023-04-03T18:51:24;8.40;51.60
5631;DHT22;2837;50.990;7.124;2023-04-03T18:53:50;8.40;51.20
5631;DHT22;2837;50.990;7.124;2023-04-03T18:56:16;8.30;50.70
5631;DHT22;2837;50.990;7.124;2023-04-03T18:58:42;8.30;51.00
5631;DHT22;2837;50.990;7.124;2023-04-03T19:01:07;8.30;51.30
5631;DHT22;2837;50.990;7.124;2023-04-03T19:03:34;8.30;51.50
5631;DHT22;2837;50.990;7.124;2023-04-03T19:06:02;8.20;51.20
5631;DHT22;2837;50.990;7.124;2023-04-03T19:08:27;8.20;51.60
5631;DHT22;2837;50.990;7.124;2023-04-03T19:10:53;8.20;51.40
5631;DHT22;2837;50.990;7.124;2023-04-03T19:13:18;8.20;51.00
5631;DHT22;2837;50.990;7.124;2023-04-03T19:15:44;8.10;51.20
5631;DHT22;2837;50.990;7.124;2023-04-03T19:18:11;8.10;51.20
5631;DHT22;2837;50.990;7.124;2023-04-03T19:20:36;8.10;50.80
5631;DHT22;2837;50.990;7.124;2023-04-03T19:23:02;8.10;51.30
5631;DHT22;2837;50.990;7.124;2023-04-03T19:25:27;8.00;51.10
5631;DHT22;2837;50.990;7.124;2023-04-03T19:27:53;8.00;51.30
5631;DHT22;2837;50.990;7.124;2023-04-03T19:30:19;8.00;51.50
5631;DHT22;2837;50.990;7.124;2023-04-03T19:32:44;8.00;52.10
5631;DHT22;2837;50.990;7.124;2023-04-03T19:35:10;8.00;51.70
5631;DHT22;2837;50.990;7.124;2023-04-03T19:37:36;7.90;51.60
5631;DHT22;2837;50.990;7.124;2023-04-03T19:40:02;7.90;51.60
5631;DHT22;2837;50.990;7.124;2023-04-03T19:42:28;7.90;51.80
5631;DHT22;2837;50.990;7.124;2023-04-03T19:44:56;7.80;51.70
5631;DHT22;2837;50.990;7.124;2023-04-03T19:47:21;7.80;51.60
5631;DHT22;2837;50.990;7.124;2023-04-03T19:49:48;7.80;52.30
5631;DHT22;2837;50.990;7.124;2023-04-03T19:52:14;8.10;52.80
5631;DHT22;2837;50.990;7.124;2023-04-03T19:54:39;7.70;52.40
5631;DHT22;2837;50.990;7.124;2023-04-03T19:57:05;7.70;52.80
5631;DHT22;2837;50.990;7.124;2023-04-03T19:59:31;7.80;52.30
5631;DHT22;2837;50.990;7.124;2023-04-03T20:01:57;7.80;52.10
5631;DHT22;2837;50.990;7.124;2023-04-03T20:04:22;7.70;52.40
5631;DHT22;2837;50.990;7.124;2023-04-03T20:06:48;7.70;52.80
5631;DHT22;2837;50.990;7.124;2023-04-03T20:09:15;7.70;52.20
5631;DHT22;2837;50.990;7.124;2023-04-03T20:11:42;7.60;52.40
5631;DHT22;2837;50.990;7.124;2023-04-03T20:14:12;7.60;52.40
5631;DHT22;2837;50.990;7.124;2023-04-03T20:16:37;7.60;52.70
5631;DHT22;2837;50.990;7.124;2023-04-03T20:19:03;7.50;52.60
5631;DHT22;2837;50.990;7.124;2023-04-03T20:21:31;7.80;53.10
5631;DHT22;2837;50.990;7.124;2023-04-03T20:23:58;7.50;53.20
5631;DHT22;2837;50.990;7.124;2023-04-03T20:26:26;7.50;53.20
5631;DHT22;2837;50.990;7.124;2023-04-03T20:28:53;7.50;52.80
5631;DHT22;2837;50.990;7.124;2023-04-03T20:31:21;7.50;53.00
5631;DHT22;2837;50.990;7.124;2023-04-03T20:33:47;7.50;52.90
5631;DHT22;2837;50.990;7.124;2023-04-03T20:36:14;7.50;53.00
5631;DHT22;2837;50.990;7.124;2023-04-03T20:38:41;7.50;54.00
5631;DHT22;2837;50.990;7.124;2023-04-03T20:41:07;7.40;53.30
5631;DHT22;2837;50.990;7.124;2023-04-03T20:43:32;7.40;53.10
5631;DHT22;2837;50.990;7.124;2023-04-03T20:45:59;7.40;52.90
5631;DHT22;2837;50.990;7.124;2023-04-03T20:48:26;7.40;53.40
5631;DHT22;2837;50.990;7.124;2023-04-03T20:50:51;7.40;54.10
5631;DHT22;2837;50.990;7.124;2023-04-03T20:53:17;7.40;54.00
5631;DHT22;2837;50.990;7.124;2023-04-03T20:55:57;7.40;52.80
5631;DHT22;2837;50.990;7.124;2023-04-03T20:58:27;7.30;53.80
